This is the latest recevied weather packets stored in our database for station/object JF7ELG-13. If no packets are shown the sender has not sent any weather packets the latest 10 day(s).
| Time | Temp. | Humidity | Pressure | Rain* | Wind** | Luminosity | Snow |
|---|---|---|---|---|---|---|---|
| 1778258010 | 12.78° C | 74% | 1000.4 hPa | 0 mm | - | - | - |
| 1778257105 | 12.22° C | 85% | 1000.7 hPa | 0 mm | - | - | - |
| 1778256228 | 12.22° C | 87% | 1000.6 hPa | 0 mm | - | - | - |
| 1778255300 | 12.22° C | 87% | 1000.4 hPa | 0 mm | - | - | - |
| 1778254439 | 12.22° C | 87% | 1000.4 hPa | 0 mm | - | - | - |
| 1778253532 | 12.78° C | 89% | 1000.4 hPa | 0 mm | - | - | - |
| 1778252610 | 13.33° C | 84% | 1000.4 hPa | 0 mm | - | - | - |
| 1778251728 | 13.89° C | 82% | 1000.3 hPa | 0 mm | - | - | - |
| 1778250827 | 13.33° C | 89% | 1000.6 hPa | 1.02 mm | - | - | - |
| 1778249902 | 13.33° C | 86% | 1000.2 hPa | 1.02 mm | - | - | - |
| 1778249023 | 14.44° C | 85% | 1000 hPa | 1.02 mm | - | - | - |
| 1778248117 | 14.44° C | 91% | 999.9 hPa | 1.02 mm | - | - | - |
| 1778247220 | 14.44° C | 93% | 1000.2 hPa | 0 mm | - | - | - |
| 1778246312 | 15° C | 92% | 999.6 hPa | 0 mm | - | - | - |
| 1778245436 | 15° C | 92% | 1000 hPa | 0 mm | - | - | - |
| 1778244531 | 15° C | 93% | 999.9 hPa | 0 mm | - | - | - |
| 1778243612 | 15.56° C | 95% | 999.8 hPa | 0 mm | - | - | - |
| 1778242712 | 16.11° C | 95% | 999.4 hPa | 0 mm | - | - | - |
| 1778241814 | 16.11° C | 95% | 999.5 hPa | 1.02 mm | - | - | - |
| 1778240923 | 16.67° C | 95% | 999.7 hPa | 2.03 mm | - | - | - |
| 1778240022 | 16.67° C | 95% | 999.7 hPa | 4.06 mm | - | - | - |
| 1778239111 | 17.22° C | 95% | 999.4 hPa | 6.1 mm | - | - | - |
| 1778238221 | 17.22° C | 95% | 999.5 hPa | 7.87 mm | - | - | - |
| 1778237312 | 17.22° C | 94% | 999.5 hPa | 9.91 mm | - | - | - |
| 1778236438 | 17.22° C | 94% | 999.5 hPa | 7.87 mm | - | - | - |
* Rain latest hour (hover to see other rain measurements)
** Current wind speed in m/s (hover to see current wind gust speed)